Europa — C6QK8 — position and weather

sailwx.info

Track history (hours):
 
Tides and Currents Weather Stations Pressure Air Temp Water Temp Dewpoint Dewpoint Depression Visibility Wind Speed Wind Dir Waves Ship Positions

Europa

Operator: Hapag-Lloyd Container Line

Last reported at 2019-May-20 09:01 UTC. Time now 2019-May-20 17:02 UTC.
Position N 40°36' E 003°20'.

Length 199 m; draft 6.2 m.

Type: Passenger vessel. MMSI: 308007000.

Date/timePositionNaut miles runAvg speedWind from/ knotsBaromVisibWave heightAir tempDewpointWater temp
2019-May-20 09:01N 40°36' E 003°20'1 8.7
2019-May-20 08:52N 40°35' E 003°19'3 8.7
2019-May-20 08:29N 40°32' E 003°16'8 9.1
2019-May-20 07:38N 40°27' E 003°09'4 8.2
2019-May-20 07:12N 40°24' E 003°06'1 5.9
2019-May-20 07:00N 40°25' E 003°06'6 6.4
2019-May-20 06:07N 40°20' E 003°02'1 8.7
2019-May-20 05:59N 40°20' E 003°01'4 8.7
2019-May-20 05:30N 40°16' E 002°57'4 8.7
2019-May-20 05:00N 40°13' E 002°53'4 8.8
2019-May-20 04:30N 40°10' E 002°50'5 9.0
2019-May-20 03:54N 40°06' E 002°45'5 9.2
2019-May-20 03:22N 40°02' E 002°41'5 9.2
2019-May-20 02:50N 39°59' E 002°36'32 7.8
2019-May-19 22:45N 39°29' E 002°20'2 9.3
2019-May-19 22:29N 39°28' E 002°23'5 9.7
2019-May-19 22:00N 39°25' E 002°28'4 8.6
2019-May-19 21:30N 39°26' E 002°33'510.3
2019-May-19 21:00N 39°30' E 002°37'3 6.5
2019-May-19 20:30N 39°33' E 002°38'0 0.0
2019-May-19 20:00N 39°33' E 002°38'0 0.0
2019-May-19 19:30N 39°33' E 002°38'0 0.0
2019-May-19 19:00N 39°33' E 002°38'0 0.0
2019-May-19 18:30N 39°33' E 002°38'0 0.0
2019-May-19 18:00N 39°33' E 002°38'0 0.0
2019-May-19 17:30N 39°33' E 002°38'0 0.0
2019-May-19 17:00N 39°33' E 002°38'0 0.0
2019-May-19 16:30N 39°33' E 002°38'0 0.0
2019-May-19 16:00N 39°33' E 002°38'0 0.0
2019-May-19 15:30N 39°33' E 002°38'0 0.0
2019-May-19 15:00N 39°33' E 002°38'0 0.0
2019-May-19 14:30N 39°33' E 002°38'0 0.0
2019-May-19 14:00N 39°33' E 002°38'0 0.0
2019-May-19 13:30N 39°33' E 002°38'0 0.0
2019-May-19 13:00N 39°33' E 002°38'0 0.0
2019-May-19 12:30N 39°33' E 002°38'0 0.0
2019-May-19 12:00N 39°33' E 002°38'0 0.0
2019-May-19 11:30N 39°33' E 002°38'0 0.0
2019-May-19 11:00N 39°33' E 002°38'0 0.0
2019-May-19 10:30N 39°33' E 002°38'0 0.0
2019-May-19 10:00N 39°33' E 002°38'0 0.0
2019-May-19 09:30N 39°33' E 002°38'0 0.0
2019-May-19 09:00N 39°33' E 002°38'0 0.0
2019-May-19 08:30N 39°33' E 002°38'0 0.0
2019-May-19 08:00N 39°33' E 002°38'0 0.0
2019-May-19 07:30N 39°33' E 002°38'0 0.0
2019-May-19 07:00N 39°33' E 002°38'0 0.0
2019-May-19 06:30N 39°33' E 002°38'0 0.0
2019-May-19 06:00N 39°33' E 002°38'0 0.0
2019-May-19 05:30N 39°33' E 002°38'0 0.0
2019-May-19 05:00N 39°33' E 002°38'0 0.1
2019-May-19 04:30N 39°33' E 002°38'2 4.1
2019-May-19 04:00N 39°31' E 002°39'613.0
2019-May-19 03:30N 39°25' E 002°41'714.4
2019-May-19 03:00N 39°18' E 002°44'713.9
2019-May-19 02:30N 39°12' E 002°47'713.4
2019-May-19 02:00N 39°05' E 002°50'712.2
2019-May-19 01:26N 39°05' E 002°59'613.6
2019-May-19 00:59N 39°09' E 003°06'713.8
2019-May-19 00:28N 39°13' E 003°14'1014.4
2019-May-18 23:45N 39°18' E 003°25'516.0
2019-May-18 23:26N 39°21' E 003°30'715.8
2019-May-18 22:59N 39°25' E 003°38'54 1.2
2019-May-17 01:28N 39°34' E 004°46'1217.1
2019-May-17 00:48N 39°30' E 004°32'817.2
2019-May-17 00:21N 39°28' E 004°23'617.0
2019-May-17 00:00N 39°26' E 004°16'1216.8
2019-May-16 23:18N 39°22' E 004°01'616.8
2019-May-16 22:56N 39°20' E 003°54'1016.9
2019-May-16 22:22N 39°17' E 003°42'617.3
2019-May-16 22:00N 39°15' E 003°34'917.2
2019-May-16 21:30N 39°12' E 003°23'816.9
2019-May-16 21:00N 39°09' E 003°13'916.7
2019-May-16 20:28N 39°07' E 003°03'816.4
2019-May-16 20:00N 39°04' E 002°53'815.1
2019-May-16 19:30N 39°11' E 002°48'816.4
2019-May-16 19:00N 39°19' E 002°44'816.7
2019-May-16 18:30N 39°26' E 002°41'714.2
2019-May-16 18:00N 39°33' E 002°38'0 0.7
2019-May-16 17:28N 39°33' E 002°38'0 0.0
2019-May-16 16:58N 39°33' E 002°38'0 0.0
2019-May-16 16:28N 39°33' E 002°38'0 0.0
2019-May-16 15:58N 39°33' E 002°38'0 0.0
2019-May-16 15:28N 39°33' E 002°38'0 0.0
2019-May-16 14:58N 39°33' E 002°38'0 0.0
2019-May-16 14:28N 39°33' E 002°38'0 0.0
2019-May-16 13:58N 39°33' E 002°38'0 0.0
2019-May-16 13:28N 39°33' E 002°38'0 0.0
2019-May-16 12:58N 39°33' E 002°38'0 0.0
2019-May-16 12:28N 39°33' E 002°38'0 0.0
2019-May-16 11:58N 39°33' E 002°38'0 0.0
2019-May-16 11:28N 39°33' E 002°38'0 0.0
2019-May-16 10:58N 39°33' E 002°38'0 0.0
2019-May-16 10:28N 39°33' E 002°38'0 0.0
2019-May-16 09:58N 39°33' E 002°38'0 0.0
2019-May-16 09:28N 39°33' E 002°38'0 0.0
2019-May-16 08:58N 39°33' E 002°38'0 0.0
2019-May-16 08:28N 39°33' E 002°38'0 0.0
2019-May-16 07:58N 39°33' E 002°38'0 0.0
2019-May-16 07:28N 39°33' E 002°38'0 0.0
2019-May-16 06:58N 39°33' E 002°38'0 0.0
2019-May-16 06:28N 39°33' E 002°38'0 0.0
2019-May-16 05:58N 39°33' E 002°38'0 0.0
2019-May-16 05:28N 39°33' E 002°38'0 0.0
2019-May-16 04:58N 39°33' E 002°38'0 0.2
2019-May-16 04:30N 39°33' E 002°38'2 3.1
2019-May-16 04:00N 39°32' E 002°39'4 8.9
2019-May-16 03:30N 39°27' E 002°40'510.2
2019-May-16 03:00N 39°23' E 002°43'611.4
2019-May-16 02:30N 39°17' E 002°45'611.9
2019-May-16 02:00N 39°12' E 002°47'612.2
2019-May-16 01:30N 39°06' E 002°50'510.8
2019-May-16 01:00N 39°03' E 002°56'612.3
2019-May-16 00:30N 39°03' E 003°04'612.4
2019-May-16 00:00N 39°02' E 003°12'612.3
2019-May-15 23:30N 39°01' E 003°20'712.7
2019-May-15 22:55N 39°01' E 003°29'512.9
2019-May-15 22:30N 39°00' E 003°36'713.0
2019-May-15 21:56N 38°60' E 003°46'39815.4
2019-May-14 20:00N 38°21' E 012°14'916.4
2019-May-14 19:29N 38°21' E 012°25'816.7
2019-May-14 19:01N 38°20' E 012°35'917.3
2019-May-14 18:30N 38°19' E 012°46'917.5
2019-May-14 18:01N 38°18' E 012°57'917.1
2019-May-14 17:31N 38°17' E 013°08'816.5
2019-May-14 17:01N 38°17' E 013°18'714.2
2019-May-14 16:31N 38°13' E 013°26'612.6
2019-May-14 16:00N 38°07' E 013°23'1 1.2
2019-May-14 15:29N 38°08' E 013°22'0 0.0
2019-May-14 14:59N 38°08' E 013°22'0 0.0
2019-May-14 14:29N 38°08' E 013°22'0 0.0
2019-May-14 13:59N 38°08' E 013°22'0 0.0
2019-May-14 13:29N 38°08' E 013°22'0 0.0
2019-May-14 12:59N 38°08' E 013°22'0 0.0
2019-May-14 12:29N 38°08' E 013°22'0 0.0
2019-May-14 11:59N 38°08' E 013°22'0 0.0
2019-May-14 11:29N 38°08' E 013°22'0 0.0
2019-May-14 10:59N 38°08' E 013°22'0 0.0
2019-May-14 10:29N 38°08' E 013°22'0 0.0
2019-May-14 09:59N 38°08' E 013°22'0 0.0
2019-May-14 09:29N 38°08' E 013°22'0 0.0
2019-May-14 08:59N 38°08' E 013°22'0 0.0
2019-May-14 08:29N 38°08' E 013°22'0 0.0
2019-May-14 07:59N 38°08' E 013°22'0 0.0
2019-May-14 07:29N 38°08' E 013°22'0 0.0
2019-May-14 06:59N 38°08' E 013°22'0 0.0
2019-May-14 06:29N 38°08' E 013°22'0 0.0
2019-May-14 05:59N 38°08' E 013°22'0 0.0
2019-May-14 05:30N 38°08' E 013°22'1 2.4
2019-May-14 05:00N 38°08' E 013°23'5 9.2
2019-May-14 04:30N 38°10' E 013°28'815.3
2019-May-14 04:00N 38°13' E 013°37'815.7
2019-May-14 03:30N 38°16' E 013°47'816.1
2019-May-14 03:00N 38°19' E 013°56'816.7
2019-May-14 02:30N 38°22' E 014°06'816.8
2019-May-14 02:00N 38°24' E 014°16'816.5
2019-May-14 01:30N 38°27' E 014°26'816.6
2019-May-14 01:00N 38°31' E 014°36'816.8
2019-May-14 00:30N 38°36' E 014°44'816.6
2019-May-14 00:00N 38°41' E 014°53'816.7
2019-May-13 23:30N 38°45' E 015°02'816.8
2019-May-13 23:00N 38°50' E 015°11'4 8.5
2019-May-13 22:30N 38°51' E 015°16'612.0
2019-May-13 22:00N 38°47' E 015°11'918.7
2019-May-13 21:30N 38°39' E 015°18'918.7
2019-May-13 21:00N 38°33' E 015°27'918.6
2019-May-13 20:30N 38°26' E 015°35'918.5
2019-May-13 20:01N 38°19' E 015°42'714.6
2019-May-13 19:31N 38°13' E 015°37'612.8
2019-May-13 19:01N 38°06' E 015°36'816.6
2019-May-13 18:31N 37°58' E 015°34'816.6
2019-May-13 18:01N 37°50' E 015°31'816.6
2019-May-13 17:30N 37°42' E 015°29'816.6
2019-May-13 17:01N 37°34' E 015°27'917.2
2019-May-13 16:31N 37°25' E 015°25'917.1
2019-May-13 15:58N 37°17' E 015°22'917.0
2019-May-13 15:28N 37°08' E 015°20'7 0.7
2019-May-13 04:23N 37°02' E 015°25'81 5.0
2019-May-12 12:18N 35°54' E 014°31'0 0.0
2019-May-12 08:00N 35°54' E 014°31'0 0.0
2019-May-12 07:30N 35°54' E 014°31'0 0.0
2019-May-12 07:00N 35°54' E 014°31'0 0.0
2019-May-12 05:42N 35°54' E 014°31'0 0.0
2019-May-12 04:48N 35°54' E 014°31'0 0.0
2019-May-12 04:15N 35°54' E 014°31'27 2.6
2019-May-11 17:40N 35°60' E 015°03'211.8
2019-May-11 17:30N 36°00' E 015°06'611.8
2019-May-11 17:00N 36°01' E 015°13'612.0
2019-May-11 16:30N 36°02' E 015°20'1211.3
2019-May-11 15:28N 36°04' E 015°35'  
Track history (hours):
 
Tides and Currents Weather Stations Pressure Air Temp Water Temp Dewpoint Dewpoint Depression Visibility Wind Speed Wind Dir Waves Ship Positions

Europa

Operator: Hapag-Lloyd Container Line

Last reported at 2019-May-20 09:01 UTC. Time now 2019-May-20 17:02 UTC.
Position N 40°36' E 003°20'.

Length 199 m; draft 6.2 m.

Type: Passenger vessel. MMSI: 308007000.

Date/timePositionNaut miles runAvg speedWind from/ knotsBaromVisibWave heightAir tempDewpointWater temp
2019-May-20 09:01N 40°36' E 003°20'1 8.7
2019-May-20 08:52N 40°35' E 003°19'3 8.7
2019-May-20 08:29N 40°32' E 003°16'8 9.1
2019-May-20 07:38N 40°27' E 003°09'4 8.2
2019-May-20 07:12N 40°24' E 003°06'1 5.9
2019-May-20 07:00N 40°25' E 003°06'6 6.4
2019-May-20 06:07N 40°20' E 003°02'1 8.7
2019-May-20 05:59N 40°20' E 003°01'4 8.7
2019-May-20 05:30N 40°16' E 002°57'4 8.7
2019-May-20 05:00N 40°13' E 002°53'4 8.8
2019-May-20 04:30N 40°10' E 002°50'5 9.0
2019-May-20 03:54N 40°06' E 002°45'5 9.2
2019-May-20 03:22N 40°02' E 002°41'5 9.2
2019-May-20 02:50N 39°59' E 002°36'32 7.8
2019-May-19 22:45N 39°29' E 002°20'2 9.3
2019-May-19 22:29N 39°28' E 002°23'5 9.7
2019-May-19 22:00N 39°25' E 002°28'4 8.6
2019-May-19 21:30N 39°26' E 002°33'510.3
2019-May-19 21:00N 39°30' E 002°37'3 6.5
2019-May-19 20:30N 39°33' E 002°38'0 0.0
2019-May-19 20:00N 39°33' E 002°38'0 0.0
2019-May-19 19:30N 39°33' E 002°38'0 0.0
2019-May-19 19:00N 39°33' E 002°38'0 0.0
2019-May-19 18:30N 39°33' E 002°38'0 0.0
2019-May-19 18:00N 39°33' E 002°38'0 0.0
2019-May-19 17:30N 39°33' E 002°38'0 0.0
2019-May-19 17:00N 39°33' E 002°38'0 0.0
2019-May-19 16:30N 39°33' E 002°38'0 0.0
2019-May-19 16:00N 39°33' E 002°38'0 0.0
2019-May-19 15:30N 39°33' E 002°38'0 0.0
2019-May-19 15:00N 39°33' E 002°38'0 0.0
2019-May-19 14:30N 39°33' E 002°38'0 0.0
2019-May-19 14:00N 39°33' E 002°38'0 0.0
2019-May-19 13:30N 39°33' E 002°38'0 0.0
2019-May-19 13:00N 39°33' E 002°38'0 0.0
2019-May-19 12:30N 39°33' E 002°38'0 0.0
2019-May-19 12:00N 39°33' E 002°38'0 0.0
2019-May-19 11:30N 39°33' E 002°38'0 0.0
2019-May-19 11:00N 39°33' E 002°38'0 0.0
2019-May-19 10:30N 39°33' E 002°38'0 0.0
2019-May-19 10:00N 39°33' E 002°38'0 0.0
2019-May-19 09:30N 39°33' E 002°38'0 0.0
2019-May-19 09:00N 39°33' E 002°38'0 0.0
2019-May-19 08:30N 39°33' E 002°38'0 0.0
2019-May-19 08:00N 39°33' E 002°38'0 0.0
2019-May-19 07:30N 39°33' E 002°38'0 0.0
2019-May-19 07:00N 39°33' E 002°38'0 0.0
2019-May-19 06:30N 39°33' E 002°38'0 0.0
2019-May-19 06:00N 39°33' E 002°38'0 0.0
2019-May-19 05:30N 39°33' E 002°38'0 0.0
2019-May-19 05:00N 39°33' E 002°38'0 0.1
2019-May-19 04:30N 39°33' E 002°38'2 4.1
2019-May-19 04:00N 39°31' E 002°39'613.0
2019-May-19 03:30N 39°25' E 002°41'714.4
2019-May-19 03:00N 39°18' E 002°44'713.9
2019-May-19 02:30N 39°12' E 002°47'713.4
2019-May-19 02:00N 39°05' E 002°50'712.2
2019-May-19 01:26N 39°05' E 002°59'613.6
2019-May-19 00:59N 39°09' E 003°06'713.8
2019-May-19 00:28N 39°13' E 003°14'1014.4
2019-May-18 23:45N 39°18' E 003°25'516.0
2019-May-18 23:26N 39°21' E 003°30'715.8
2019-May-18 22:59N 39°25' E 003°38'54 1.2
2019-May-17 01:28N 39°34' E 004°46'1217.1
2019-May-17 00:48N 39°30' E 004°32'817.2
2019-May-17 00:21N 39°28' E 004°23'617.0
2019-May-17 00:00N 39°26' E 004°16'1216.8
2019-May-16 23:18N 39°22' E 004°01'616.8
2019-May-16 22:56N 39°20' E 003°54'1016.9
2019-May-16 22:22N 39°17' E 003°42'617.3
2019-May-16 22:00N 39°15' E 003°34'917.2
2019-May-16 21:30N 39°12' E 003°23'816.9
2019-May-16 21:00N 39°09' E 003°13'916.7
2019-May-16 20:28N 39°07' E 003°03'816.4
2019-May-16 20:00N 39°04' E 002°53'815.1
2019-May-16 19:30N 39°11' E 002°48'816.4
2019-May-16 19:00N 39°19' E 002°44'816.7
2019-May-16 18:30N 39°26' E 002°41'714.2
2019-May-16 18:00N 39°33' E 002°38'0 0.7
2019-May-16 17:28N 39°33' E 002°38'0 0.0
2019-May-16 16:58N 39°33' E 002°38'0 0.0
2019-May-16 16:28N 39°33' E 002°38'0 0.0
2019-May-16 15:58N 39°33' E 002°38'0 0.0
2019-May-16 15:28N 39°33' E 002°38'0 0.0
2019-May-16 14:58N 39°33' E 002°38'0 0.0
2019-May-16 14:28N 39°33' E 002°38'0 0.0
2019-May-16 13:58N 39°33' E 002°38'0 0.0
2019-May-16 13:28N 39°33' E 002°38'0 0.0
2019-May-16 12:58N 39°33' E 002°38'0 0.0
2019-May-16 12:28N 39°33' E 002°38'0 0.0
2019-May-16 11:58N 39°33' E 002°38'0 0.0
2019-May-16 11:28N 39°33' E 002°38'0 0.0
2019-May-16 10:58N 39°33' E 002°38'0 0.0
2019-May-16 10:28N 39°33' E 002°38'0 0.0
2019-May-16 09:58N 39°33' E 002°38'0 0.0
2019-May-16 09:28N 39°33' E 002°38'0 0.0
2019-May-16 08:58N 39°33' E 002°38'0 0.0
2019-May-16 08:28N 39°33' E 002°38'0 0.0
2019-May-16 07:58N 39°33' E 002°38'0 0.0
2019-May-16 07:28N 39°33' E 002°38'0 0.0
2019-May-16 06:58N 39°33' E 002°38'0 0.0
2019-May-16 06:28N 39°33' E 002°38'0 0.0
2019-May-16 05:58N 39°33' E 002°38'0 0.0
2019-May-16 05:28N 39°33' E 002°38'0 0.0
2019-May-16 04:58N 39°33' E 002°38'0 0.2
2019-May-16 04:30N 39°33' E 002°38'2 3.1
2019-May-16 04:00N 39°32' E 002°39'4 8.9
2019-May-16 03:30N 39°27' E 002°40'510.2
2019-May-16 03:00N 39°23' E 002°43'611.4
2019-May-16 02:30N 39°17' E 002°45'611.9
2019-May-16 02:00N 39°12' E 002°47'612.2
2019-May-16 01:30N 39°06' E 002°50'510.8
2019-May-16 01:00N 39°03' E 002°56'612.3
2019-May-16 00:30N 39°03' E 003°04'612.4
2019-May-16 00:00N 39°02' E 003°12'612.3
2019-May-15 23:30N 39°01' E 003°20'712.7
2019-May-15 22:55N 39°01' E 003°29'512.9
2019-May-15 22:30N 39°00' E 003°36'713.0
2019-May-15 21:56N 38°60' E 003°46'39815.4
2019-May-14 20:00N 38°21' E 012°14'916.4
2019-May-14 19:29N 38°21' E 012°25'816.7
2019-May-14 19:01N 38°20' E 012°35'917.3
2019-May-14 18:30N 38°19' E 012°46'917.5
2019-May-14 18:01N 38°18' E 012°57'917.1
2019-May-14 17:31N 38°17' E 013°08'816.5
2019-May-14 17:01N 38°17' E 013°18'714.2
2019-May-14 16:31N 38°13' E 013°26'612.6
2019-May-14 16:00N 38°07' E 013°23'1 1.2
2019-May-14 15:29N 38°08' E 013°22'0 0.0
2019-May-14 14:59N 38°08' E 013°22'0 0.0
2019-May-14 14:29N 38°08' E 013°22'0 0.0
2019-May-14 13:59N 38°08' E 013°22'0 0.0
2019-May-14 13:29N 38°08' E 013°22'0 0.0
2019-May-14 12:59N 38°08' E 013°22'0 0.0
2019-May-14 12:29N 38°08' E 013°22'0 0.0
2019-May-14 11:59N 38°08' E 013°22'0 0.0
2019-May-14 11:29N 38°08' E 013°22'0 0.0
2019-May-14 10:59N 38°08' E 013°22'0 0.0
2019-May-14 10:29N 38°08' E 013°22'0 0.0
2019-May-14 09:59N 38°08' E 013°22'0 0.0
2019-May-14 09:29N 38°08' E 013°22'0 0.0
2019-May-14 08:59N 38°08' E 013°22'0 0.0
2019-May-14 08:29N 38°08' E 013°22'0 0.0
2019-May-14 07:59N 38°08' E 013°22'0 0.0
2019-May-14 07:29N 38°08' E 013°22'0 0.0
2019-May-14 06:59N 38°08' E 013°22'0 0.0
2019-May-14 06:29N 38°08' E 013°22'0 0.0
2019-May-14 05:59N 38°08' E 013°22'0 0.0
2019-May-14 05:30N 38°08' E 013°22'1 2.4
2019-May-14 05:00N 38°08' E 013°23'5 9.2
2019-May-14 04:30N 38°10' E 013°28'815.3
2019-May-14 04:00N 38°13' E 013°37'815.7
2019-May-14 03:30N 38°16' E 013°47'816.1
2019-May-14 03:00N 38°19' E 013°56'816.7
2019-May-14 02:30N 38°22' E 014°06'816.8
2019-May-14 02:00N 38°24' E 014°16'816.5
2019-May-14 01:30N 38°27' E 014°26'816.6
2019-May-14 01:00N 38°31' E 014°36'816.8
2019-May-14 00:30N 38°36' E 014°44'816.6
2019-May-14 00:00N 38°41' E 014°53'816.7
2019-May-13 23:30N 38°45' E 015°02'816.8
2019-May-13 23:00N 38°50' E 015°11'4 8.5
2019-May-13 22:30N 38°51' E 015°16'612.0
2019-May-13 22:00N 38°47' E 015°11'918.7
2019-May-13 21:30N 38°39' E 015°18'918.7
2019-May-13 21:00N 38°33' E 015°27'918.6
2019-May-13 20:30N 38°26' E 015°35'918.5
2019-May-13 20:01N 38°19' E 015°42'714.6
2019-May-13 19:31N 38°13' E 015°37'612.8
2019-May-13 19:01N 38°06' E 015°36'816.6
2019-May-13 18:31N 37°58' E 015°34'816.6
2019-May-13 18:01N 37°50' E 015°31'816.6
2019-May-13 17:30N 37°42' E 015°29'816.6
2019-May-13 17:01N 37°34' E 015°27'917.2
2019-May-13 16:31N 37°25' E 015°25'917.1
2019-May-13 15:58N 37°17' E 015°22'917.0
2019-May-13 15:28N 37°08' E 015°20'7 0.7
2019-May-13 04:23N 37°02' E 015°25'81 5.0
2019-May-12 12:18N 35°54' E 014°31'0 0.0
2019-May-12 08:00N 35°54' E 014°31'0 0.0
2019-May-12 07:30N 35°54' E 014°31'0 0.0
2019-May-12 07:00N 35°54' E 014°31'0 0.0
2019-May-12 05:42N 35°54' E 014°31'0 0.0
2019-May-12 04:48N 35°54' E 014°31'0 0.0
2019-May-12 04:15N 35°54' E 014°31'27 2.6
2019-May-11 17:40N 35°60' E 015°03'211.8
2019-May-11 17:30N 36°00' E 015°06'611.8
2019-May-11 17:00N 36°01' E 015°13'612.0
2019-May-11 16:30N 36°02' E 015°20'1211.3
2019-May-11 15:28N 36°04' E 015°35'  

Dump ship's entire track history